Pinsonfork, Kentucky
Current Conditions -  °F | °C
As of 10:15 AM on Wednesday 26 Nov 2014 (Local Time) from KPBX Reporting Station
Overcast Overcast  
Wind Chill: 33°   Ceiling: 1500
Heat Index: 37°   Visibility: 10mi
Dew Point: 31°   Wind: 5mph
Humidity: 80%   Direction: 320°NW
Pressure: 30.05"   Gusts: NA
Location:  37.55°N, 82.26°W
Report Text: KPBX 261515Z AUTO 32004KT 10SM OVC015 03/M01 A3005 RMK AO2 T00251007
Loading
Personal Weather Stations






























Interactive Weather Map New forecast layout! Learn more

10-Day Weather Forecast

Advertisements
Track Severe Weather on mobile